News.

Patrouille Sparflex - figure aérienne - Fly and Fun
Réserver un vol ?

Vous avez envie de vivre un moment unique ? Réserver un vol à sensation ou un vol d’initiation pour profiter d’un moment inoubliable a bord d’un L39 Albatros !

Patrouille Sparflex - figure aérienne - Fly and Fun
Nouveau site internet !

Bienvenue sur notre nouveau site internet !
Vous pouvez désormais commander votre vol à sensation ou d’initiation directement en ligne !

Social Wall.

Suivez-nous sur les réseaux sociaux comme Facebook et Instagram pour découvrir des actualités inédites !

Facebook.
Comments Box SVG iconsUsed for the like, share, comment, and reaction icons

Une météo exceptionnelle pour des candidats qui le sont tout autant !!!!
Nadine, Florian, Loïc et Stéphan…. Merci à eux pour leur confiance et leur enthousiasme 👍😎
... See MoreSee Less

Comment on Facebook

Merci à vous, un moment inoubliable, une équipe au top, aux petits soins. Une expérience formidable. 👍

Quelle chance et quelle joie qui se voit 😃😄

Les sourires en disent long 👍

Killian !!!… des étoiles plein les yeux et des rêves plein la tête !!👍🤩 ... See MoreSee Less

Killian !!!… des étoiles plein les yeux et des rêves plein la tête !!👍🤩

Comment on Facebook

Génial 🙏 mon jour viendra 😀😀

METAR :

LFQA 171100Z AUTO 10005KT 6000 OVC002 08/08 Q1021


vue en direct sur l'aérodrome
mentions légales politique de confidentialité
Cochet Concept
cx